Time;durP1;ratioP1;P1;durP2;ratioP2;P2;SDS_P1;SDS_P2;PMS_P1;PMS_P2;Temp;Humidity;BMP_temperature;BMP_pressure;BME280_temperature;BME280_humidity;BME280_pressure;Samples;Min_cycle;Max_cycle;Signal;HPM_P1;HPM_P2
2024/02/15 00:04:21;;;;;;;1.63;1.20;;;;;;;12.08;59.57;101435.19;10371399;28;20281;-60
2024/02/15 00:09:22;;;;;;;1.43;1.30;;;;;;;12.08;59.11;101438.66;10383188;28;20630;-60
2024/02/15 00:14:22;;;;;;;1.67;1.42;;;;;;;12.09;58.79;101439.44;10371338;28;20295;-60
2024/02/15 00:19:22;;;;;;;1.60;0.93;;;;;;;12.08;59.76;101435.19;10371071;28;20389;-60
2024/02/15 00:24:24;;;;;;;1.85;1.55;;;;;;;12.09;58.79;101444.78;10369363;28;20473;-59
2024/02/15 00:29:26;;;;;;;2.00;1.33;;;;;;;12.09;59.91;101442.91;10384068;28;20026;-59
2024/02/15 00:34:26;;;;;;;1.60;1.08;;;;;;;12.09;59.36;101442.91;10395123;28;20396;-60
2024/02/15 00:39:26;;;;;;;1.15;0.90;;;;;;;12.09;59.94;101442.91;10370239;28;20026;-60
2024/02/15 00:44:27;;;;;;;1.67;1.40;;;;;;;12.08;59.60;101446.63;10369845;28;20026;-60
2024/02/15 00:49:27;;;;;;;2.00;1.20;;;;;;;12.09;58.88;101442.91;10369737;28;20281;-60
2024/02/15 00:54:28;;;;;;;2.33;1.13;;;;;;;12.09;59.72;101442.91;10369372;28;20091;-59
2024/02/15 00:59:28;;;;;;;1.60;1.30;;;;;;;12.10;58.89;101444.53;10369149;28;20034;-60
2024/02/15 01:04:29;;;;;;;2.00;1.33;;;;;;;12.09;59.69;101444.78;10368923;28;20285;-60
2024/02/15 01:09:29;;;;;;;1.45;1.23;;;;;;;12.09;60.35;101434.13;10377358;28;20119;-60
2024/02/15 01:14:30;;;;;;;2.63;1.27;;;;;;;12.09;59.93;101432.28;10374831;28;20056;-60
2024/02/15 01:19:30;;;;;;;1.70;1.38;;;;;;;12.09;58.93;101434.94;10367413;28;20193;-60
2024/02/15 01:24:31;;;;;;;1.83;1.10;;;;;;;12.08;59.50;101435.19;10368407;28;20025;-60
2024/02/15 01:29:31;;;;;;;2.65;1.70;;;;;;;12.08;58.92;101425.34;10368162;28;20281;-61
2024/02/15 01:34:32;;;;;;;1.83;1.30;;;;;;;12.10;59.16;101435.75;10405076;28;20096;-60
2024/02/15 01:39:32;;;;;;;1.38;1.27;;;;;;;12.08;59.06;101414.72;10407614;28;20299;-60
2024/02/15 01:44:33;;;;;;;3.13;1.60;;;;;;;12.08;59.08;101417.38;10407470;28;20010;-60
2024/02/15 01:49:33;;;;;;;1.73;1.50;;;;;;;12.09;58.91;101421.66;10409095;28;20302;-60
2024/02/15 01:54:34;;;;;;;2.63;1.48;;;;;;;12.09;59.94;101410.22;10406789;28;21258;-60
2024/02/15 01:59:34;;;;;;;1.70;1.23;;;;;;;12.08;59.18;101412.06;10408693;28;20507;-60
2024/02/15 02:04:34;;;;;;;2.45;1.50;;;;;;;12.09;60.16;101421.66;10407856;28;20056;-61
2024/02/15 02:09:35;;;;;;;1.57;1.20;;;;;;;12.09;60.05;101415.53;10407439;28;20049;-61
2024/02/15 02:14:35;;;;;;;2.03;1.37;;;;;;;12.10;59.91;101414.47;10386765;28;20633;-59
2024/02/15 02:19:38;;;;;;;2.75;1.50;;;;;;;12.10;59.48;101406.50;10366991;28;20288;-61
2024/02/15 02:24:58;;;;;;;2.13;1.52;;;;;;;12.09;59.09;101395.06;10366131;28;20038;-61
2024/02/15 02:29:59;;;;;;;2.20;1.60;;;;;;;12.09;59.01;101387.09;10365558;28;20034;-60
2024/02/15 02:34:59;;;;;;;1.77;1.30;;;;;;;12.10;59.20;101382.59;10364449;28;20034;-60
2024/02/15 02:40:00;;;;;;;2.00;1.42;;;;;;;12.10;59.49;101383.41;10364887;28;20037;-60
2024/02/15 02:45:00;;;;;;;1.87;1.50;;;;;;;12.10;59.06;101379.94;10365091;28;20029;-60
2024/02/15 02:50:01;;;;;;;2.30;1.58;;;;;;;12.10;60.02;101375.41;10364138;28;20299;-60
2024/02/15 02:55:04;;;;;;;1.95;1.40;;;;;;;12.10;60.22;101377.28;10363868;28;20026;-60
2024/02/15 03:00:10;;;;;;;3.38;1.60;;;;;;;12.10;58.91;101382.59;10365785;28;20036;-60
2024/02/15 03:05:14;;;;;;;2.03;1.50;;;;;;;12.10;59.72;101383.41;10365060;28;20323;-61
2024/02/15 03:10:14;;;;;;;1.85;1.30;;;;;;;12.10;59.05;101374.63;10376471;28;20058;-60
2024/02/15 03:15:15;;;;;;;2.70;1.33;;;;;;;12.10;59.25;101369.28;10364608;28;20026;-60
2024/02/15 03:20:21;;;;;;;2.22;1.23;;;;;;;12.10;59.08;101364.78;10364911;28;20045;-61
2024/02/15 03:25:23;;;;;;;3.45;1.70;;;;;;;12.11;59.60;101370.91;10364768;28;20022;-61
2024/02/15 03:30:30;;;;;;;1.92;1.58;;;;;;;12.11;58.90;101369.06;10364961;28;20099;-61
2024/02/15 03:35:31;;;;;;;1.90;1.15;;;;;;;12.11;58.73;101373.56;10347190;28;20503;-60
2024/02/15 03:40:32;;;;;;;2.08;1.45;;;;;;;12.10;59.49;101363.97;10364665;28;20025;-60
2024/02/15 03:45:32;;;;;;;1.70;1.30;;;;;;;12.11;59.54;101370.91;10364208;28;20411;-60
2024/02/15 03:50:32;;;;;;;1.90;1.37;;;;;;;12.10;58.60;101359.47;10364432;28;20026;-60
2024/02/15 03:55:36;;;;;;;1.63;1.30;;;;;;;12.11;59.92;101353.09;10375850;28;20293;-59
2024/02/15 04:00:37;;;;;;;2.03;1.55;;;;;;;12.10;59.23;101362.13;10401282;28;20288;-59
2024/02/15 04:05:38;;;;;;;1.88;1.27;;;;;;;12.11;59.48;101360.28;10405762;28;20021;-60
2024/02/15 04:10:38;;;;;;;2.50;1.83;;;;;;;12.12;59.00;101364.53;10410524;28;20189;-60
2024/02/15 04:15:38;;;;;;;2.20;1.65;;;;;;;12.11;59.23;101352.31;10400986;28;20033;-60
2024/02/15 04:20:39;;;;;;;2.15;1.58;;;;;;;12.12;59.65;101359.22;10411134;28;20288;-60
2024/02/15 04:25:40;;;;;;;2.53;2.00;;;;;;;12.11;58.78;101347.78;10411970;28;20025;-61
2024/02/15 04:30:41;;;;;;;3.45;1.90;;;;;;;12.10;59.71;101340.88;10417973;28;20028;-60
2024/02/15 04:35:42;;;;;;;2.03;1.70;;;;;;;12.10;59.85;101343.53;10383152;28;20025;-60
2024/02/15 04:40:42;;;;;;;1.75;1.58;;;;;;;12.10;58.91;101340.06;10370033;28;20372;-60
2024/02/15 04:45:43;;;;;;;2.23;1.40;;;;;;;12.10;59.20;101346.19;10352417;28;20025;-60
2024/02/15 04:50:43;;;;;;;1.40;1.05;;;;;;;12.11;59.84;101342.47;10369807;28;20280;-60
2024/02/15 04:55:43;;;;;;;2.90;1.60;;;;;;;12.11;59.57;101342.47;10368607;28;20401;-60
2024/02/15 05:00:44;;;;;;;3.00;1.60;;;;;;;12.11;58.52;101328.38;10369019;28;20291;-60
2024/02/15 05:05:44;;;;;;;1.90;1.47;;;;;;;12.11;59.68;101323.06;10369416;28;20393;-60
2024/02/15 05:10:45;;;;;;;3.00;1.63;;;;;;;12.10;59.84;101314.28;10381642;28;20307;-60
2024/02/15 05:15:46;;;;;;;2.05;1.58;;;;;;;12.11;59.13;101323.06;10368775;28;20026;-61
2024/02/15 05:20:46;;;;;;;2.30;1.40;;;;;;;12.10;59.99;101324.91;10368386;28;20470;-59
2024/02/15 05:25:46;;;;;;;2.33;1.30;;;;;;;12.10;59.98;101326.78;10368619;28;20281;-60
2024/02/15 05:30:47;;;;;;;2.25;1.65;;;;;;;12.11;60.19;101333.69;10369973;28;20381;-61
2024/02/15 05:35:49;;;;;;;2.87;1.97;;;;;;;12.11;60.40;101325.72;10366793;28;20026;-60
2024/02/15 05:40:50;;;;;;;2.55;1.67;;;;;;;12.11;58.74;101323.88;10367619;28;20273;-60
2024/02/15 05:45:52;;;;;;;3.65;1.83;;;;;;;12.11;60.57;101331.03;10366457;28;20026;-60
2024/02/15 05:50:54;;;;;;;2.90;1.80;;;;;;;12.11;60.01;101315.91;10390490;28;20021;-60
2024/02/15 05:55:55;;;;;;;2.60;1.70;;;;;;;12.11;59.09;101309.78;10407020;28;20056;-60
2024/02/15 06:01:00;;;;;;;2.17;1.60;;;;;;;12.11;60.34;101273.38;10406428;28;20105;-60
2024/02/15 06:06:06;;;;;;;2.50;1.88;;;;;;;12.10;59.63;101231.88;10407926;28;20523;-60
2024/02/15 06:11:06;;;;;;;2.05;1.35;;;;;;;12.12;59.66;101229.78;10387671;28;20135;-61
2024/02/15 06:16:09;;;;;;;3.72;1.40;;;;;;;12.11;60.14;101245.97;10366522;28;20168;-61
2024/02/15 06:21:11;;;;;;;1.83;1.20;;;;;;;12.11;60.14;101251.28;10366365;28;20497;-60
2024/02/15 06:26:11;;;;;;;3.10;1.25;;;;;;;12.12;59.41;101267.00;10366385;28;20038;-60
2024/02/15 06:41:52;;;;;;;2.97;1.40;;;;;;;12.11;59.55;101286.66;10370438;28;20033;-60
2024/02/15 06:46:52;;;;;;;3.70;1.55;;;;;;;12.12;59.99;101287.47;10393739;28;20037;-61
2024/02/15 06:51:53;;;;;;;3.43;1.70;;;;;;;12.11;59.98;101286.66;10405974;28;20049;-60
2024/02/15 06:56:54;;;;;;;1.63;1.30;;;;;;;12.12;59.57;101287.47;10406481;28;20759;-60
2024/02/15 07:01:55;;;;;;;2.22;1.50;;;;;;;12.13;59.21;101278.44;10404618;28;20026;-61
2024/02/15 07:06:55;;;;;;;3.85;1.55;;;;;;;12.12;59.30;101263.53;10405152;28;20030;-60
2024/02/15 07:11:57;;;;;;;2.33;1.38;;;;;;;12.12;58.98;101258.22;10379327;28;20050;-60
2024/02/15 07:16:58;;;;;;;1.88;1.40;;;;;;;12.10;60.19;101271.75;10360986;28;20165;-60
2024/02/15 07:21:58;;;;;;;2.85;1.80;;;;;;;12.11;60.21;101276.03;10363424;28;20354;-61
2024/02/15 07:26:59;;;;;;;2.00;1.23;;;;;;;12.11;59.32;101283.19;10368490;28;20373;-60
2024/02/15 07:32:04;;;;;;;2.10;1.40;;;;;;;12.13;59.34;101278.44;10391049;28;20285;-61
2024/02/15 07:37:04;;;;;;;2.95;1.52;;;;;;;12.12;59.71;101296.25;10365308;28;20625;-60
2024/02/15 07:42:05;;;;;;;3.17;1.70;;;;;;;12.11;59.01;101267.25;10370183;28;20199;-60
2024/02/15 07:47:05;;;;;;;1.88;1.52;;;;;;;12.12;60.09;101282.16;10387725;28;20029;-60
2024/02/15 07:52:05;;;;;;;1.90;1.40;;;;;;;12.12;60.08;101279.50;10409217;28;20517;-60
2024/02/15 07:57:06;;;;;;;1.95;1.48;;;;;;;12.13;59.38;101294.38;10378622;28;20496;-60
2024/02/15 08:02:06;;;;;;;3.90;1.48;;;;;;;12.12;59.44;101303.41;10372600;28;20041;-61
2024/02/15 08:07:10;;;;;;;2.70;1.30;;;;;;;12.13;59.40;101310.34;10371959;28;20072;-61
2024/02/15 08:12:10;;;;;;;2.20;1.20;;;;;;;12.12;59.40;101308.72;10385075;28;20296;-60
2024/02/15 08:17:12;;;;;;;1.70;1.60;;;;;;;12.12;59.40;101317.50;10373089;28;20022;-61
2024/02/15 08:22:12;;;;;;;1.60;1.05;;;;;;;12.13;60.12;101310.34;10371781;28;20505;-60
2024/02/15 08:27:12;;;;;;;3.37;1.23;;;;;;;12.13;59.60;101310.34;10371287;28;20066;-60
2024/02/15 08:32:14;;;;;;;2.60;1.63;;;;;;;12.13;59.06;101316.47;10371721;28;20407;-60
2024/02/15 08:37:15;;;;;;;3.00;1.27;;;;;;;12.13;58.96;101320.97;10369723;28;20367;-60
2024/02/15 08:42:15;;;;;;;2.00;1.42;;;;;;;12.13;60.35;101313.81;10369549;28;20025;-60
2024/02/15 08:47:15;;;;;;;3.40;1.77;;;;;;;12.14;59.12;101288.03;10369227;28;20048;-60
2024/02/15 08:52:18;;;;;;;2.55;1.30;;;;;;;12.14;59.40;101285.38;10363686;28;20358;-60
2024/02/15 08:57:19;;;;;;;1.80;1.13;;;;;;;12.13;60.14;101281.09;10368471;28;20421;-60
2024/02/15 09:02:19;;;;;;;2.38;1.30;;;;;;;12.13;59.01;101278.44;10368962;28;20025;-61
2024/02/15 09:07:21;;;;;;;1.47;1.23;;;;;;;12.12;59.65;101292.78;10369222;28;20037;-61
2024/02/15 09:12:22;;;;;;;1.48;1.00;;;;;;;12.13;59.90;101279.25;10380299;28;20303;-60
2024/02/15 09:17:22;;;;;;;2.60;1.20;;;;;;;12.12;60.33;101274.97;10368665;28;20022;-60
2024/02/15 09:22:23;;;;;;;1.90;1.38;;;;;;;12.12;60.33;101269.66;10369293;28;20026;-60
2024/02/15 09:27:23;;;;;;;2.45;1.45;;;;;;;12.12;59.57;101261.69;10369011;28;20401;-60
2024/02/15 09:32:24;;;;;;;2.27;1.17;;;;;;;12.13;60.84;101267.81;10368840;28;20041;-60
2024/02/15 09:37:26;;;;;;;2.17;1.40;;;;;;;12.11;60.91;101268.06;10369518;28;20291;-60
2024/02/15 09:42:26;;;;;;;2.28;1.30;;;;;;;12.12;60.08;101274.97;10369945;28;20052;-60
2024/02/15 09:47:34;;;;;;;2.33;1.10;;;;;;;12.13;60.82;101267.81;10367890;28;20026;-60
2024/02/15 09:52:37;;;;;;;2.15;1.30;;;;;;;12.13;60.43;101275.78;10369527;28;20072;-60
2024/02/15 09:57:38;;;;;;;2.33;1.23;;;;;;;12.13;60.43;101257.19;10355973;28;20028;-60
2024/02/15 10:02:40;;;;;;;2.03;1.15;;;;;;;12.13;60.71;101252.66;10368580;28;20065;-60
2024/02/15 10:07:41;;;;;;;3.38;1.40;;;;;;;12.14;60.13;101264.91;10370350;28;20132;-60
2024/02/15 10:12:43;;;;;;;2.80;1.58;;;;;;;12.14;60.32;101264.09;10377951;28;20469;-60
2024/02/15 10:17:54;;;;;;;2.38;1.30;;;;;;;12.13;60.81;101263.28;10368011;28;20030;-60
2024/02/15 10:23:17;;;;;;;2.40;1.42;;;;;;;12.13;60.55;101265.97;10366920;28;20025;-59
2024/02/15 10:28:23;;;;;;;1.83;1.40;;;;;;;12.13;61.50;101265.97;10366415;28;20397;-60
2024/02/15 10:33:30;;;;;;;2.03;1.30;;;;;;;12.13;61.57;101267.81;10407210;28;20033;-60
2024/02/15 10:38:31;;;;;;;3.33;1.40;;;;;;;12.14;60.37;101272.88;10367609;28;20091;-60
2024/02/15 10:43:37;;;;;;;2.30;1.38;;;;;;;12.14;61.32;101272.88;10367509;28;20040;-60
2024/02/15 10:48:38;;;;;;;2.30;1.35;;;;;;;12.14;61.16;101269.41;10367563;28;20548;-60
2024/02/15 10:53:41;;;;;;;1.92;1.10;;;;;;;12.15;60.42;101260.41;10365616;28;20025;-60
2024/02/15 10:59:07;;;;;;;2.15;1.75;;;;;;;12.14;61.31;101264.91;10365210;28;20025;-60
2024/02/15 11:04:08;;;;;;;2.63;1.38;;;;;;;12.14;60.99;101254.28;10365517;28;20065;-60
2024/02/15 11:09:13;;;;;;;3.03;1.52;;;;;;;12.15;60.41;101250.56;10381719;28;20056;-60
2024/02/15 11:14:23;;;;;;;2.25;1.40;;;;;;;12.14;60.72;101243.66;10360898;28;20025;-60
2024/02/15 11:19:35;;;;;;;2.75;1.48;;;;;;;12.14;61.14;101238.31;10379684;28;20050;-61
2024/02/15 11:24:37;;;;;;;2.83;1.00;;;;;;;12.16;60.03;101243.41;10380254;28;20022;-60
2024/02/15 11:29:58;;;;;;;5.05;1.73;;;;;;;12.15;60.91;101237.28;10378204;28;20405;-60
2024/02/15 11:35:23;;;;;;;2.40;1.15;;;;;;;12.16;59.79;101238.09;10380019;28;20135;-61
2024/02/15 11:40:28;;;;;;;2.08;1.45;;;;;;;12.16;61.28;101238.09;10379738;28;20411;-61
2024/02/15 11:45:37;;;;;;;2.15;1.10;;;;;;;12.16;60.25;101220.28;10391881;28;20025;-60
2024/02/15 11:50:39;;;;;;;2.20;1.00;;;;;;;12.15;60.93;101221.31;10373484;28;20026;-61
2024/02/15 11:55:40;;;;;;;2.55;1.45;;;;;;;12.16;60.18;101203.53;10378215;28;20040;-60
2024/02/15 12:21:57;;;;;;;2.80;1.60;;;;;;;12.16;61.92;101180.41;10420171;28;20033;-60
2024/02/15 12:27:05;;;;;;;2.45;1.30;;;;;;;12.18;61.59;101174.84;10415687;28;20025;-60
2024/02/15 12:32:05;;;;;;;3.28;1.27;;;;;;;12.18;61.26;101154.38;10390948;28;20072;-60
2024/02/15 12:37:09;;;;;;;1.43;1.10;;;;;;;12.19;61.23;101147.22;10371003;28;20025;-61
2024/02/15 12:42:09;;;;;;;1.55;1.05;;;;;;;12.20;60.99;101146.19;10372085;28;20292;-61
2024/02/15 12:47:10;;;;;;;1.92;1.17;;;;;;;12.22;60.89;101146.75;10370595;28;20040;-61
2024/02/15 12:52:33;;;;;;;2.50;1.30;;;;;;;12.22;61.81;101139.59;10370228;28;20477;-61
2024/02/15 12:57:33;;;;;;;1.50;1.00;;;;;;;12.22;61.88;101141.44;10370272;28;20444;-61
2024/02/15 13:02:34;;;;;;;1.83;1.00;;;;;;;12.23;62.16;101130.56;10369268;28;20074;-61
2024/02/15 13:07:36;;;;;;;2.03;1.20;;;;;;;12.23;61.17;101129.75;10359506;28;20061;-60
2024/02/15 13:12:37;;;;;;;2.10;1.25;;;;;;;12.23;61.85;101132.41;10379880;28;20295;-61
2024/02/15 13:17:38;;;;;;;2.83;1.67;;;;;;;12.22;62.18;101126.28;10368762;28;20034;-60
2024/02/15 13:22:38;;;;;;;4.57;2.35;;;;;;;12.23;61.71;101125.25;10376032;28;20029;-61
2024/02/15 13:27:39;;;;;;;2.22;1.00;;;;;;;12.23;61.40;101111.13;10411277;28;20527;-60
2024/02/15 13:32:43;;;;;;;2.40;1.20;;;;;;;12.24;61.97;101112.75;10410982;28;20491;-60
2024/02/15 13:37:46;;;;;;;2.65;1.30;;;;;;;12.23;60.79;101103.97;10408353;28;20500;-61
2024/02/15 13:42:52;;;;;;;2.30;1.27;;;;;;;12.24;61.09;101099.47;10371789;28;20341;-60
2024/02/15 13:47:55;;;;;;;1.55;1.10;;;;;;;12.23;61.18;101085.38;10367992;28;20246;-61
2024/02/15 13:52:57;;;;;;;2.33;1.45;;;;;;;12.25;60.44;101069.16;10383593;28;20057;-61
2024/02/15 13:57:58;;;;;;;1.67;0.93;;;;;;;12.25;61.32;101062.00;10408157;28;20423;-60
2024/02/15 14:03:00;;;;;;;2.53;1.00;;;;;;;12.26;60.60;101058.28;10408862;28;20017;-60
2024/02/15 14:08:09;;;;;;;2.97;0.98;;;;;;;12.27;61.01;101051.09;10408004;28;20046;-61
2024/02/15 14:13:11;;;;;;;1.95;1.30;;;;;;;12.27;60.40;101045.78;10370234;28;20029;-61
2024/02/15 14:18:13;;;;;;;2.53;1.15;;;;;;;12.28;60.66;101040.22;10368033;28;20152;-61
2024/02/15 14:23:13;;;;;;;1.83;1.25;;;;;;;12.30;61.44;101042.63;10367222;28;20088;-61
2024/02/15 14:28:14;;;;;;;2.70;1.35;;;;;;;12.33;61.64;101022.75;10368194;28;20363;-60
2024/02/15 14:33:16;;;;;;;1.50;0.80;;;;;;;12.33;61.09;101028.06;10367291;28;20092;-61
2024/02/15 14:38:18;;;;;;;1.80;1.05;;;;;;;12.32;61.41;101023.81;10367718;28;20049;-61
2024/02/15 14:43:26;;;;;;;1.40;0.90;;;;;;;12.32;60.50;101027.25;10366422;28;20113;-61
2024/02/15 14:48:27;;;;;;;1.83;1.00;;;;;;;12.33;60.52;101033.38;10366240;28;20044;-61
2024/02/15 14:53:27;;;;;;;2.30;1.15;;;;;;;12.32;60.87;101032.59;10367173;28;20033;-61
2024/02/15 14:58:27;;;;;;;1.92;1.13;;;;;;;12.33;61.28;101030.72;10365649;28;20437;-61
2024/02/15 15:03:32;;;;;;;1.77;0.90;;;;;;;12.32;61.34;101016.63;10366028;28;20080;-61
2024/02/15 15:13:51;;;;;;;1.58;1.00;;;;;;;12.32;61.30;101019.28;10366959;28;20534;-61
2024/02/15 15:18:52;;;;;;;3.10;1.38;;;;;;;12.32;60.47;101013.16;10365033;28;20413;-61
2024/02/15 15:23:53;;;;;;;1.73;0.80;;;;;;;12.32;60.65;101013.97;10367118;28;20045;-61
2024/02/15 15:28:55;;;;;;;2.38;1.05;;;;;;;12.32;60.50;101007.84;10355846;28;20388;-60
2024/02/15 15:33:55;;;;;;;3.78;1.30;;;;;;;12.32;60.98;101005.19;10391476;28;20172;-60
2024/02/15 15:38:56;;;;;;;1.98;0.90;;;;;;;12.32;61.28;100998.03;10364761;28;20026;-60
2024/02/15 15:43:56;;;;;;;2.38;1.33;;;;;;;12.31;60.85;100993.72;10366504;28;20026;-60
2024/02/15 15:48:57;;;;;;;1.92;1.42;;;;;;;12.32;60.51;100984.72;10364753;28;20038;-60
2024/02/15 15:53:58;;;;;;;2.85;1.25;;;;;;;12.33;61.31;100982.88;10365968;28;20026;-61
2024/02/15 15:58:58;;;;;;;2.00;0.82;;;;;;;12.31;60.93;100975.13;10365976;28;20068;-60
2024/02/15 16:03:59;;;;;;;1.27;0.90;;;;;;;12.32;60.95;100970.63;10369731;28;20026;-61
2024/02/15 16:08:59;;;;;;;1.73;1.08;;;;;;;12.33;61.71;100973.03;10385923;28;20894;-59
2024/02/15 16:14:00;;;;;;;1.60;1.10;;;;;;;12.32;61.23;100958.13;10412464;28;20432;-60
2024/02/15 16:19:00;;;;;;;1.83;1.13;;;;;;;12.32;61.46;100947.50;10366183;28;20022;-61
2024/02/15 16:24:01;;;;;;;2.00;1.10;;;;;;;12.32;60.73;100947.50;10371826;28;20026;-59
2024/02/15 16:29:01;;;;;;;1.65;1.00;;;;;;;12.33;61.58;100949.09;10372781;28;20280;-61
2024/02/15 16:34:01;;;;;;;1.60;1.13;;;;;;;12.34;61.48;100949.91;10372780;28;20436;-60
2024/02/15 16:39:02;;;;;;;2.33;1.10;;;;;;;12.34;61.49;100934.75;10363702;28;20049;-60
2024/02/15 16:44:02;;;;;;;1.75;0.95;;;;;;;12.34;60.61;100939.28;10364848;28;20284;-61
2024/02/15 16:49:03;;;;;;;3.08;0.93;;;;;;;12.34;61.15;100947.25;10371308;28;20022;-61
2024/02/15 16:54:04;;;;;;;2.42;1.33;;;;;;;12.33;60.90;100946.44;10370322;28;20050;-61
2024/02/15 16:59:05;;;;;;;1.58;1.10;;;;;;;12.35;61.34;100933.69;10371874;28;20578;-61
2024/02/15 17:04:07;;;;;;;1.67;0.80;;;;;;;12.35;61.14;100922.25;10371242;28;20029;-61
2024/02/15 17:09:08;;;;;;;1.55;1.00;;;;;;;12.35;61.42;100915.09;10384562;28;20052;-60
2024/02/15 17:14:09;;;;;;;1.58;1.02;;;;;;;12.36;61.04;100923.88;10386827;28;20472;-61
2024/02/15 17:19:09;;;;;;;1.60;1.10;;;;;;;12.37;60.95;100933.44;10412164;28;20112;-61
2024/02/15 17:24:10;;;;;;;1.10;0.80;;;;;;;12.37;60.50;100933.44;10411209;28;20112;-61
2024/02/15 17:29:10;;;;;;;2.07;1.10;;;;;;;12.37;60.47;100931.59;10409615;28;20083;-60
2024/02/15 17:34:11;;;;;;;2.25;1.23;;;;;;;12.38;61.13;100932.41;10375969;28;20351;-59
2024/02/15 17:39:14;;;;;;;2.42;1.42;;;;;;;12.38;61.11;100927.06;10376567;28;20029;-61
2024/02/15 17:44:14;;;;;;;1.58;0.95;;;;;;;12.39;60.74;100928.69;10394007;28;20028;-61
2024/02/15 17:49:15;;;;;;;1.63;0.80;;;;;;;12.39;60.67;100929.50;10408551;28;20028;-61
2024/02/15 17:54:15;;;;;;;1.33;0.85;;;;;;;12.40;60.15;100919.66;10406787;28;20021;-60
2024/02/15 17:59:15;;;;;;;1.33;0.80;;;;;;;12.40;60.81;100924.97;10408535;28;20404;-61
2024/02/15 18:04:16;;;;;;;1.80;0.80;;;;;;;12.40;60.19;100927.63;10406699;28;20268;-60
2024/02/15 18:09:17;;;;;;;1.67;0.95;;;;;;;12.40;60.62;100924.97;10378298;28;20335;-60
2024/02/15 18:14:17;;;;;;;4.33;1.60;;;;;;;12.41;60.19;100935.34;10406139;28;20420;-60
2024/02/15 18:19:19;;;;;;;1.70;1.07;;;;;;;12.42;60.38;100936.97;10406246;28;20276;-59
2024/02/15 18:24:20;;;;;;;2.70;1.30;;;;;;;12.40;59.87;100931.09;10406351;28;20834;-61
2024/02/15 18:29:21;;;;;;;2.75;1.08;;;;;;;12.42;60.12;100933.50;10407095;28;20066;-61
2024/02/15 18:34:22;;;;;;;1.80;1.03;;;;;;;12.43;59.63;100919.16;10371262;28;20508;-61
2024/02/15 18:39:25;;;;;;;1.08;0.85;;;;;;;12.43;60.19;100911.16;10378340;28;20368;-61
2024/02/15 18:44:25;;;;;;;2.97;0.98;;;;;;;12.44;60.22;100910.16;10402778;28;20329;-60
2024/02/15 18:49:26;;;;;;;1.38;0.88;;;;;;;12.43;60.24;100898.72;10405203;28;20021;-60
2024/02/15 18:54:26;;;;;;;1.90;1.00;;;;;;;12.44;60.03;100894.19;10405974;28;20055;-61
2024/02/15 18:59:29;;;;;;;2.25;0.80;;;;;;;12.44;60.91;100894.19;10406299;28;20284;-61
2024/02/15 19:04:29;;;;;;;1.65;0.80;;;;;;;12.44;60.52;100878.22;10405870;28;20032;-61
2024/02/15 19:09:31;;;;;;;1.30;0.77;;;;;;;12.44;59.87;100879.03;10400635;28;20150;-61
2024/02/15 19:14:31;;;;;;;1.73;0.98;;;;;;;12.44;60.22;100888.88;10364945;28;20261;-61
2024/02/15 19:19:32;;;;;;;2.30;0.88;;;;;;;12.44;59.72;100880.91;10364897;28;20029;-60
2024/02/15 19:24:34;;;;;;;2.08;0.98;;;;;;;12.43;59.45;100874.78;10363758;28;20359;-60
2024/02/15 19:29:34;;;;;;;3.17;1.08;;;;;;;12.45;60.41;100882.50;10375133;28;20025;-61
2024/02/15 19:34:35;;;;;;;1.63;0.80;;;;;;;12.45;60.25;100882.50;10366154;28;20045;-61
2024/02/15 19:39:40;;;;;;;1.65;0.90;;;;;;;12.45;59.71;100877.19;10371072;28;20032;-60
2024/02/15 19:44:41;;;;;;;1.20;0.82;;;;;;;12.45;59.90;100885.16;10371436;28;20033;-60
2024/02/15 19:49:42;;;;;;;1.40;0.90;;;;;;;12.45;60.14;100885.16;10370742;28;20037;-61
2024/02/15 19:54:42;;;;;;;2.10;0.80;;;;;;;12.45;59.59;100880.63;10372276;28;20417;-60
2024/02/15 19:59:43;;;;;;;1.33;0.82;;;;;;;12.44;59.58;100879.03;10370481;28;20036;-60
2024/02/15 20:04:43;;;;;;;2.10;1.15;;;;;;;12.46;59.37;100870.81;10371458;28;20041;-60
2024/02/15 20:09:46;;;;;;;1.30;0.70;;;;;;;12.45;59.55;100872.66;10391733;28;20125;-61
2024/02/15 20:14:47;;;;;;;1.73;0.90;;;;;;;12.46;59.40;100860.16;10412635;28;20736;-60
2024/02/15 20:19:49;;;;;;;1.63;0.80;;;;;;;12.46;60.13;100850.34;10411617;28;20113;-61
2024/02/15 20:24:49;;;;;;;2.38;1.42;;;;;;;12.45;60.03;100839.94;10410722;28;20029;-60
2024/02/15 20:29:52;;;;;;;1.20;0.87;;;;;;;12.44;60.48;100836.50;10410730;28;20026;-60
2024/02/15 20:34:52;;;;;;;2.00;0.80;;;;;;;12.46;60.16;100825.59;10371357;28;20872;-60
2024/02/15 20:39:53;;;;;;;1.48;0.85;;;;;;;12.45;59.46;100816.81;10370686;28;20026;-61
2024/02/15 20:44:54;;;;;;;1.60;0.80;;;;;;;12.45;59.78;100811.50;10352818;28;20033;-60
2024/02/15 20:49:54;;;;;;;0.90;0.60;;;;;;;12.47;59.20;100811.25;10368204;28;20029;-61
2024/02/15 20:54:54;;;;;;;1.90;1.03;;;;;;;12.46;59.92;100813.09;10368861;28;20313;-60
2024/02/15 20:59:55;;;;;;;1.88;0.93;;;;;;;12.45;59.29;100808.84;10368247;28;20295;-60
2024/02/15 21:04:55;;;;;;;1.98;1.10;;;;;;;12.47;59.60;100805.94;10368317;28;20018;-60
2024/02/15 21:09:56;;;;;;;1.08;0.65;;;;;;;12.45;60.60;100787.56;10389924;28;20574;-60
2024/02/15 21:14:57;;;;;;;2.03;1.13;;;;;;;12.45;59.79;100779.59;10409896;28;20036;-60
2024/02/15 21:19:57;;;;;;;1.85;1.25;;;;;;;12.45;59.62;100784.91;10409622;28;20028;-61
2024/02/15 21:24:58;;;;;;;1.57;0.90;;;;;;;12.46;60.27;100785.72;10409849;28;20021;-60
2024/02/15 21:29:58;;;;;;;1.60;0.98;;;;;;;12.45;59.46;100787.56;10409645;28;20523;-60
2024/02/15 21:35:03;;;;;;;2.13;1.08;;;;;;;12.46;60.16;100789.16;10368360;28;20022;-60
2024/02/15 21:40:05;;;;;;;1.50;1.02;;;;;;;12.44;60.01;100785.97;10367009;28;20084;-60
2024/02/15 21:45:07;;;;;;;2.78;1.20;;;;;;;12.45;59.28;100786.75;10368552;28;20017;-60
2024/02/15 21:50:07;;;;;;;2.47;1.33;;;;;;;12.45;59.24;100784.09;10366299;28;20034;-60
2024/02/15 21:55:08;;;;;;;1.90;1.15;;;;;;;12.46;60.09;100791.03;10367680;28;20030;-60
2024/02/15 22:00:11;;;;;;;2.38;1.45;;;;;;;12.46;59.88;100791.81;10366326;28;20029;-60
2024/02/15 22:05:11;;;;;;;1.27;0.73;;;;;;;12.45;59.33;100787.56;10366046;28;20077;-60
2024/02/15 22:10:12;;;;;;;1.50;0.80;;;;;;;12.46;59.55;100786.50;10389238;28;20095;-59
2024/02/15 22:15:12;;;;;;;2.70;1.13;;;;;;;12.46;59.87;100778.53;10369339;28;20759;-60
2024/02/15 22:20:14;;;;;;;1.75;0.98;;;;;;;12.45;59.25;100776.94;10366303;28;20034;-60
2024/02/15 22:25:14;;;;;;;2.85;1.25;;;;;;;12.45;59.15;100784.09;10366661;28;20018;-60
2024/02/15 22:30:15;;;;;;;2.00;1.00;;;;;;;12.46;59.47;100783.06;10379184;28;20025;-59
2024/02/15 22:35:15;;;;;;;2.08;0.95;;;;;;;12.44;58.81;100782.50;10364981;28;20030;-60
2024/02/15 22:40:16;;;;;;;1.08;0.95;;;;;;;12.45;59.48;100786.75;10365852;28;20080;-59
2024/02/15 22:45:16;;;;;;;1.52;0.80;;;;;;;12.46;59.59;100783.06;10385317;28;20025;-60
2024/02/15 22:50:16;;;;;;;1.50;1.02;;;;;;;12.45;59.80;100790.22;10406580;28;20051;-60
2024/02/15 22:55:17;;;;;;;1.40;1.00;;;;;;;12.45;59.47;100789.44;10406169;28;20028;-61
2024/02/15 23:00:17;;;;;;;1.83;1.00;;;;;;;12.44;59.55;100787.81;10405008;28;20334;-59
2024/02/15 23:05:19;;;;;;;2.00;0.90;;;;;;;12.44;59.13;100785.16;10405904;28;20033;-60
2024/02/15 23:10:19;;;;;;;1.70;1.05;;;;;;;12.45;59.38;100778.78;10392098;28;20057;-60
2024/02/15 23:15:19;;;;;;;1.90;1.00;;;;;;;12.45;59.73;100792.09;10365346;28;20635;-60
2024/02/15 23:20:20;;;;;;;1.10;0.90;;;;;;;12.45;60.04;100787.56;10365167;28;20281;-60
2024/02/15 23:25:21;;;;;;;2.50;1.17;;;;;;;12.44;60.10;100793.13;10364837;28;20760;-60
2024/02/15 23:30:21;;;;;;;2.30;1.85;;;;;;;12.44;59.79;100795.81;10364676;28;20063;-60
2024/02/15 23:35:30;;;;;;;1.90;0.90;;;;;;;12.43;59.16;100795.00;10364630;28;20523;-60
2024/02/15 23:40:31;;;;;;;2.22;1.35;;;;;;;12.44;58.67;100790.47;10363678;28;20816;-60
2024/02/15 23:45:32;;;;;;;1.60;1.25;;;;;;;12.43;59.69;100787.03;10364374;28;20026;-61